createdAt,value
2023-02-26T00:01:34.413Z,15.17
2023-02-26T00:04:04.793Z,12.87
2023-02-26T00:06:37.675Z,12.57
2023-02-26T00:09:07.513Z,13.00
2023-02-26T00:11:36.151Z,11.77
2023-02-26T00:14:04.957Z,11.83
2023-02-26T00:16:36.445Z,12.17
2023-02-26T00:19:08.169Z,12.10
2023-02-26T00:21:38.491Z,11.73
2023-02-26T00:24:08.874Z,11.93
2023-02-26T00:26:37.413Z,11.60
2023-02-26T00:29:06.610Z,11.60
2023-02-26T00:31:35.340Z,12.60
2023-02-26T00:34:04.074Z,11.57
2023-02-26T00:36:43.639Z,12.43
2023-02-26T00:39:20.761Z,11.63
2023-02-26T00:41:50.419Z,11.23
2023-02-26T00:44:19.186Z,11.23
2023-02-26T00:46:55.348Z,11.67
2023-02-26T00:49:35.523Z,11.73
2023-02-26T00:52:07.713Z,11.33
2023-02-26T00:54:35.883Z,12.03
2023-02-26T00:57:06.042Z,11.30
2023-02-26T00:59:34.193Z,11.20
2023-02-26T01:02:02.252Z,11.33
2023-02-26T01:04:30.931Z,11.30
2023-02-26T01:07:00.005Z,11.33
2023-02-26T01:09:31.678Z,12.03
2023-02-26T01:12:02.016Z,10.83
2023-02-26T01:14:31.886Z,11.47
2023-02-26T01:17:06.186Z,10.70
2023-02-26T01:19:42.801Z,10.93
2023-02-26T01:22:17.238Z,10.63
2023-02-26T01:24:49.868Z,9.73
2023-02-26T01:27:18.325Z,10.50
2023-02-26T01:29:46.709Z,9.63
2023-02-26T01:32:22.204Z,11.73
2023-02-26T01:34:58.460Z,9.80
2023-02-26T01:37:33.132Z,10.30
2023-02-26T01:40:31.037Z,9.47
2023-02-26T01:43:07.935Z,9.90
2023-02-26T01:45:41.009Z,10.87
2023-02-26T01:48:13.671Z,11.23
2023-02-26T01:50:42.478Z,9.53
2023-02-26T01:53:24.120Z,10.60
2023-02-26T01:55:58.490Z,10.07
2023-02-26T01:58:29.337Z,11.03
2023-02-26T02:00:57.336Z,10.30
2023-02-26T02:03:29.063Z,10.87
2023-02-26T02:06:02.327Z,9.67
2023-02-26T02:08:33.646Z,10.40
2023-02-26T02:14:02.335Z,11.50
2023-02-26T02:16:41.928Z,8.77
2023-02-26T02:19:30.784Z,9.03
2023-02-26T02:22:35.250Z,6.43
2023-02-26T02:25:18.061Z,8.10
2023-02-26T02:27:58.587Z,8.03
2023-02-26T02:30:37.086Z,6.93
2023-02-26T02:33:12.199Z,6.80
2023-02-26T02:35:46.060Z,5.73
2023-02-26T02:38:20.368Z,5.30
2023-02-26T02:40:55.520Z,5.10
2023-02-26T02:43:29.654Z,5.13
2023-02-26T02:46:03.385Z,4.20
2023-02-26T02:48:36.441Z,4.77
2023-02-26T02:51:09.914Z,4.97
2023-02-26T02:53:42.462Z,4.93
2023-02-26T02:56:14.779Z,5.03
2023-02-26T02:58:48.319Z,5.83
2023-02-26T03:01:20.981Z,4.60
2023-02-26T03:03:57.605Z,5.23
2023-02-26T03:06:25.891Z,5.07
2023-02-26T03:08:55.460Z,5.60
2023-02-26T03:11:24.458Z,5.33
2023-02-26T03:13:54.369Z,6.67
2023-02-26T03:16:41.244Z,6.37
2023-02-26T03:19:19.576Z,6.47
2023-02-26T03:21:54.388Z,6.43
2023-02-26T03:24:30.183Z,6.80
2023-02-26T03:27:03.768Z,7.27
2023-02-26T03:29:39.742Z,7.00
2023-02-26T03:32:13.490Z,7.23
2023-02-26T03:34:48.740Z,6.23
2023-02-26T03:37:24.792Z,7.73
2023-02-26T03:39:55.684Z,6.63
2023-02-26T03:42:29.745Z,7.40
2023-02-26T03:45:01.253Z,7.47
2023-02-26T03:47:32.613Z,7.40
2023-02-26T03:50:06.914Z,8.73
2023-02-26T03:52:40.332Z,7.63
2023-02-26T03:55:12.994Z,7.70
2023-02-26T03:57:41.449Z,7.87
2023-02-26T04:00:11.375Z,8.63
2023-02-26T04:02:45.450Z,8.47
2023-02-26T04:05:19.195Z,8.63
2023-02-26T04:07:48.598Z,8.67
2023-02-26T04:10:21.662Z,12.13
2023-02-26T04:12:49.901Z,9.93
2023-02-26T04:15:18.150Z,7.87
2023-02-26T04:17:46.284Z,8.80
2023-02-26T04:20:15.928Z,7.90
2023-02-26T04:22:43.902Z,8.23
2023-02-26T04:25:12.178Z,8.07
2023-02-26T04:27:40.347Z,7.93
2023-02-26T04:30:09.890Z,9.57
2023-02-26T04:32:38.251Z,7.83
2023-02-26T04:35:06.740Z,7.40
2023-02-26T04:37:36.370Z,8.23
2023-02-26T04:40:05.779Z,7.30
2023-02-26T04:42:33.877Z,7.80
2023-02-26T04:45:02.032Z,7.70
2023-02-26T04:47:30.236Z,8.33
2023-02-26T04:49:58.468Z,9.30
2023-02-26T04:52:26.997Z,8.50
2023-02-26T04:54:56.751Z,8.43
2023-02-26T04:57:24.946Z,8.10
2023-02-26T04:59:53.137Z,9.00
2023-02-26T05:02:21.398Z,7.67
2023-02-26T05:04:49.633Z,8.43
2023-02-26T05:07:17.888Z,7.97
2023-02-26T05:09:47.700Z,7.83
2023-02-26T05:12:17.336Z,7.67
2023-02-26T05:14:45.394Z,6.93
2023-02-26T05:17:14.734Z,7.30
2023-02-26T05:19:43.920Z,8.93
2023-02-26T05:22:12.483Z,7.83
2023-02-26T05:24:40.635Z,7.07
2023-02-26T05:27:08.872Z,7.67
2023-02-26T05:29:38.391Z,8.13
2023-02-26T05:32:06.615Z,7.77
2023-02-26T05:34:34.792Z,12.87
2023-02-26T05:37:03.051Z,7.47
2023-02-26T05:39:31.544Z,7.23
2023-02-26T05:42:00.375Z,8.83
2023-02-26T05:44:28.936Z,8.80
2023-02-26T05:46:58.444Z,8.60
2023-02-26T05:49:26.632Z,9.10
2023-02-26T05:51:55.992Z,8.73
2023-02-26T05:54:24.516Z,8.90
2023-02-26T05:56:52.986Z,8.30
2023-02-26T05:59:21.382Z,10.40
2023-02-26T06:01:49.729Z,8.23
2023-02-26T06:04:19.253Z,9.23
2023-02-26T06:06:47.696Z,8.57
2023-02-26T06:09:16.136Z,8.87
2023-02-26T06:11:44.365Z,8.60
2023-02-26T06:14:12.730Z,9.27
2023-02-26T06:16:40.920Z,10.00
2023-02-26T06:19:09.114Z,9.37
2023-02-26T06:21:38.632Z,9.30
2023-02-26T06:24:07.527Z,9.13
2023-02-26T06:26:36.169Z,9.57
2023-02-26T06:29:04.456Z,11.63
2023-02-26T06:31:32.774Z,10.67
2023-02-26T06:34:01.039Z,9.10
2023-02-26T06:36:29.682Z,8.13
2023-02-26T06:38:59.333Z,9.87
2023-02-26T06:41:27.919Z,10.13
2023-02-26T06:43:56.200Z,9.70
2023-02-26T06:46:25.397Z,10.00
2023-02-26T06:48:53.767Z,11.20
2023-02-26T06:51:21.961Z,10.67
2023-02-26T06:53:50.415Z,11.87
2023-02-26T06:56:20.038Z,12.57
2023-02-26T06:58:48.230Z,14.00
2023-02-26T07:01:16.493Z,10.87
2023-02-26T07:03:44.938Z,7.93
2023-02-26T07:06:26.985Z,6.70
2023-02-26T07:08:57.014Z,7.37
2023-02-26T07:11:26.599Z,8.40
2023-02-26T07:13:55.280Z,9.02
2023-02-26T07:16:23.680Z,7.88
2023-02-26T07:18:52.364Z,8.40
2023-02-26T07:21:20.575Z,7.90
2023-02-26T07:23:48.823Z,8.30
2023-02-26T07:26:17.618Z,7.10
2023-02-26T07:28:47.335Z,7.80
2023-02-26T07:31:16.817Z,7.25
2023-02-26T07:33:45.101Z,8.35
2023-02-26T07:36:15.116Z,8.15
2023-02-26T07:38:43.574Z,8.50
2023-02-26T07:41:11.944Z,8.18
2023-02-26T07:43:40.565Z,6.63
2023-02-26T07:46:10.802Z,7.07
2023-02-26T07:48:39.414Z,6.68
2023-02-26T07:51:08.651Z,7.05
2023-02-26T07:53:37.035Z,6.43
2023-02-26T07:56:05.991Z,6.45
2023-02-26T07:58:34.996Z,6.97
2023-02-26T08:01:03.340Z,6.97
2023-02-26T08:03:33.612Z,8.45
2023-02-26T08:06:01.845Z,6.72
2023-02-26T08:08:30.349Z,7.78
2023-02-26T08:11:01.256Z,6.10
2023-02-26T08:13:30.004Z,6.88
2023-02-26T08:15:58.469Z,7.35
2023-02-26T08:18:26.820Z,6.25
2023-02-26T08:20:56.877Z,7.75
2023-02-26T08:23:28.184Z,6.68
2023-02-26T08:26:02.558Z,6.88
2023-02-26T08:28:31.376Z,7.25
2023-02-26T08:30:59.736Z,7.28
2023-02-26T08:33:28.806Z,7.72
2023-02-26T08:35:59.260Z,6.28
2023-02-26T08:38:27.874Z,5.75
2023-02-26T08:40:57.439Z,6.20
2023-02-26T08:43:26.713Z,7.50
2023-02-26T08:45:55.398Z,7.43
2023-02-26T08:48:24.641Z,6.85
2023-02-26T08:50:52.795Z,7.18
2023-02-26T08:53:22.384Z,6.40
2023-02-26T08:55:50.859Z,6.80
2023-02-26T08:58:20.120Z,6.00
2023-02-26T09:00:48.870Z,6.43
2023-02-26T09:03:17.150Z,8.90
2023-02-26T09:05:45.349Z,9.70
2023-02-26T09:08:15.582Z,6.68
2023-02-26T09:10:45.817Z,8.88
2023-02-26T09:13:14.449Z,8.50
2023-02-26T09:15:42.985Z,6.10
2023-02-26T09:18:15.830Z,7.13
2023-02-26T09:20:44.941Z,6.75
2023-02-26T09:23:13.763Z,7.38
2023-02-26T09:25:42.040Z,6.80
2023-02-26T09:28:11.818Z,7.70
2023-02-26T09:30:39.989Z,5.65
2023-02-26T09:33:09.628Z,5.78
2023-02-26T09:35:38.064Z,5.55
2023-02-26T09:38:06.560Z,6.07
2023-02-26T09:40:43.949Z,6.78
2023-02-26T09:43:31.811Z,5.38
2023-02-26T09:46:08.188Z,5.63
2023-02-26T09:48:39.462Z,5.60
2023-02-26T09:51:12.587Z,6.55
2023-02-26T09:53:42.552Z,8.88
2023-02-26T09:56:17.943Z,9.45
2023-02-26T09:58:48.001Z,5.60
2023-02-26T10:01:24.724Z,5.25
2023-02-26T10:04:04.640Z,4.95
2023-02-26T10:06:35.141Z,5.70
2023-02-26T10:09:26.155Z,4.45
2023-02-26T10:12:01.924Z,6.47
2023-02-26T10:14:36.940Z,5.25
2023-02-26T10:17:09.883Z,8.32
2023-02-26T10:19:44.307Z,6.18
2023-02-26T10:22:23.182Z,7.07
2023-02-26T10:24:55.479Z,6.40
2023-02-26T10:27:38.592Z,12.38
2023-02-26T10:30:17.525Z,6.20
2023-02-26T10:32:56.930Z,6.13
2023-02-26T10:35:30.509Z,6.78
2023-02-26T10:38:01.275Z,8.50
2023-02-26T10:40:36.168Z,6.47
2023-02-26T10:43:13.434Z,6.00
2023-02-26T10:45:53.636Z,6.25
2023-02-26T10:48:39.448Z,5.78
2023-02-26T10:51:14.415Z,4.70
2023-02-26T10:53:47.494Z,5.15
2023-02-26T10:56:20.659Z,5.15
2023-02-26T10:58:48.893Z,5.90
2023-02-26T11:01:21.854Z,5.85
2023-02-26T11:03:52.953Z,5.60
2023-02-26T11:06:25.474Z,5.60
2023-02-26T11:08:56.476Z,4.55
2023-02-26T11:11:42.926Z,5.22
2023-02-26T11:14:12.047Z,4.40
2023-02-26T11:16:49.271Z,5.00
2023-02-26T11:19:20.177Z,5.45
2023-02-26T11:21:49.299Z,6.82
2023-02-26T11:24:21.924Z,5.60
2023-02-26T11:26:51.941Z,7.25
2023-02-26T11:29:23.146Z,6.32
2023-02-26T11:31:55.714Z,5.63
2023-02-26T11:34:25.359Z,5.47
2023-02-26T11:36:57.738Z,4.22
2023-02-26T11:39:28.543Z,3.60
2023-02-26T11:41:59.713Z,4.72
2023-02-26T11:44:38.905Z,4.68
2023-02-26T11:47:18.905Z,5.15
2023-02-26T11:49:52.160Z,5.32
2023-02-26T11:52:24.286Z,4.25
2023-02-26T11:54:58.715Z,5.13
2023-02-26T11:57:29.283Z,5.50
2023-02-26T12:00:02.369Z,4.80
2023-02-26T12:02:36.254Z,4.78
2023-02-26T12:05:08.241Z,5.55
2023-02-26T12:07:37.994Z,4.88
2023-02-26T12:10:15.160Z,4.80
2023-02-26T12:12:56.352Z,5.00
2023-02-26T12:15:33.686Z,4.93
2023-02-26T12:18:27.067Z,4.68
2023-02-26T12:21:08.134Z,4.95
2023-02-26T12:23:58.278Z,5.05
2023-02-26T12:26:30.901Z,5.05
2023-02-26T12:29:24.082Z,4.88
2023-02-26T12:32:21.546Z,4.55
2023-02-26T12:35:14.463Z,5.85
2023-02-26T12:37:53.537Z,4.07
2023-02-26T12:40:43.635Z,5.40
2023-02-26T12:43:18.301Z,5.80
2023-02-26T12:45:56.477Z,5.25
2023-02-26T12:49:04.391Z,5.57
2023-02-26T12:52:00.787Z,8.38
2023-02-26T12:54:43.820Z,4.57
2023-02-26T12:57:44.381Z,5.72
2023-02-26T13:00:25.466Z,4.68
2023-02-26T13:03:09.198Z,5.20
2023-02-26T13:05:54.009Z,4.65
2023-02-26T13:08:33.841Z,4.55
2023-02-26T13:11:16.023Z,4.53
2023-02-26T13:14:05.684Z,5.90
2023-02-26T13:16:46.343Z,6.30
2023-02-26T13:19:26.417Z,5.07
2023-02-26T13:21:58.461Z,4.60
2023-02-26T13:24:35.003Z,4.75
2023-02-26T13:27:06.170Z,4.85
2023-02-26T13:29:40.416Z,4.75
2023-02-26T13:32:14.217Z,4.70
2023-02-26T13:34:48.072Z,4.90
2023-02-26T13:37:25.385Z,4.38
2023-02-26T13:40:06.904Z,4.95
2023-02-26T13:42:43.419Z,4.75
2023-02-26T13:45:29.639Z,5.32
2023-02-26T13:48:09.277Z,4.85
2023-02-26T13:50:51.699Z,5.30
2023-02-26T13:53:52.672Z,4.78
2023-02-26T13:56:39.591Z,4.50
2023-02-26T13:59:31.106Z,4.18
2023-02-26T14:02:03.444Z,5.88
2023-02-26T14:04:33.424Z,4.45
2023-02-26T14:07:08.419Z,4.82
2023-02-26T14:09:56.286Z,4.60
2023-02-26T14:12:37.077Z,4.10
2023-02-26T14:15:32.971Z,4.32
2023-02-26T14:18:03.424Z,5.28
2023-02-26T14:20:33.585Z,3.97
2023-02-26T14:23:21.573Z,3.72
2023-02-26T14:25:53.427Z,4.82
2023-02-26T14:28:55.975Z,4.32
2023-02-26T14:31:27.774Z,4.75
2023-02-26T14:34:10.763Z,4.55
2023-02-26T14:36:46.785Z,4.30
2023-02-26T14:39:30.583Z,5.28
2023-02-26T14:42:03.323Z,5.75
2023-02-26T14:44:38.771Z,5.47
2023-02-26T14:47:08.058Z,4.68
2023-02-26T14:49:39.000Z,6.50
2023-02-26T14:52:29.859Z,5.22
2023-02-26T14:55:12.712Z,6.53
2023-02-26T14:57:50.975Z,6.15
2023-02-26T15:00:31.849Z,5.93
2023-02-26T15:03:39.342Z,5.40
2023-02-26T15:06:22.061Z,5.10
2023-02-26T15:09:04.635Z,4.53
2023-02-26T15:12:05.661Z,5.03
2023-02-26T15:14:57.188Z,5.70
2023-02-26T15:17:40.632Z,5.18
2023-02-26T15:20:19.361Z,5.25
2023-02-26T15:23:04.488Z,5.30
2023-02-26T15:25:36.083Z,5.60
2023-02-26T15:28:07.417Z,6.72
2023-02-26T15:30:36.396Z,8.30
2023-02-26T15:33:13.438Z,6.78
2023-02-26T15:35:44.428Z,8.35
2023-02-26T15:38:12.930Z,7.40
2023-02-26T15:40:41.493Z,6.13
2023-02-26T15:43:11.242Z,8.50
2023-02-26T15:45:42.107Z,8.32
2023-02-26T15:48:16.563Z,8.60
2023-02-26T15:50:50.265Z,6.03
2023-02-26T15:53:25.312Z,5.43
2023-02-26T15:55:56.309Z,5.32
2023-02-26T15:58:34.610Z,5.05
2023-02-26T16:01:06.143Z,4.55
2023-02-26T16:03:43.927Z,5.28
2023-02-26T16:06:15.680Z,5.57
2023-02-26T16:08:44.213Z,8.18
2023-02-26T16:11:15.568Z,7.35
2023-02-26T16:13:45.650Z,5.70
2023-02-26T16:16:19.084Z,6.65
2023-02-26T16:18:49.438Z,6.72
2023-02-26T16:21:28.630Z,7.38
2023-02-26T16:24:04.972Z,5.88
2023-02-26T16:26:36.539Z,5.65
2023-02-26T16:29:12.729Z,6.53
2023-02-26T16:31:44.136Z,6.22
2023-02-26T16:34:31.548Z,6.20
2023-02-26T16:37:00.266Z,6.47
2023-02-26T16:39:33.153Z,7.03
2023-02-26T16:42:10.865Z,8.02
2023-02-26T16:44:49.886Z,7.45
2023-02-26T16:47:20.602Z,7.28
2023-02-26T16:49:50.606Z,8.10
2023-02-26T16:52:22.147Z,8.48
2023-02-26T16:54:56.711Z,7.78
2023-02-26T16:57:32.020Z,7.38
2023-02-26T17:00:04.807Z,7.80
2023-02-26T17:02:36.487Z,7.10
2023-02-26T17:05:17.976Z,6.15
2023-02-26T17:07:56.811Z,6.32
2023-02-26T17:10:33.306Z,6.00
2023-02-26T17:13:14.183Z,6.25
2023-02-26T17:15:45.175Z,5.78
2023-02-26T17:18:16.491Z,5.95
2023-02-26T17:20:46.492Z,6.78
2023-02-26T17:23:17.746Z,6.10
2023-02-26T17:25:51.056Z,5.55
2023-02-26T17:28:24.961Z,5.07
2023-02-26T17:30:53.771Z,7.10
2023-02-26T17:33:22.535Z,6.10
2023-02-26T17:35:53.867Z,8.13
2023-02-26T17:38:22.995Z,7.72
2023-02-26T17:40:54.562Z,7.25
2023-02-26T17:43:24.173Z,6.80
2023-02-26T17:45:53.478Z,7.25
2023-02-26T17:48:24.763Z,9.60
2023-02-26T17:50:59.446Z,8.98
2023-02-26T17:53:33.655Z,7.55
2023-02-26T17:56:02.172Z,6.97
2023-02-26T17:58:37.643Z,5.85
2023-02-26T18:01:06.632Z,7.20
2023-02-26T18:03:35.273Z,7.30
2023-02-26T18:06:07.983Z,6.18
2023-02-26T18:08:36.864Z,8.50
2023-02-26T18:11:06.605Z,8.18
2023-02-26T18:13:39.324Z,9.15
2023-02-26T18:16:20.278Z,6.85
2023-02-26T18:18:49.698Z,6.82
2023-02-26T18:21:21.748Z,6.97
2023-02-26T18:23:58.298Z,7.50
2023-02-26T18:26:30.800Z,7.97
2023-02-26T18:29:04.360Z,6.65
2023-02-26T18:31:35.840Z,6.43
2023-02-26T18:34:12.480Z,6.45
2023-02-26T18:36:51.326Z,5.78
2023-02-26T18:39:27.383Z,6.47
2023-02-26T18:41:55.897Z,5.28
2023-02-26T18:44:31.807Z,5.57
2023-02-26T18:47:02.250Z,6.57
2023-02-26T18:49:38.729Z,5.60
2023-02-26T18:52:10.429Z,8.63
2023-02-26T18:54:41.707Z,14.35
2023-02-26T18:57:17.405Z,9.10
2023-02-26T19:02:31.012Z,6.43
2023-02-26T19:05:00.859Z,14.70
2023-02-26T19:07:36.218Z,11.35
2023-02-26T19:10:09.151Z,8.60
2023-02-26T19:12:39.728Z,8.20
2023-02-26T19:15:13.451Z,7.68
2023-02-26T19:17:47.661Z,6.78
2023-02-26T19:20:19.182Z,8.18
2023-02-26T19:22:50.237Z,7.23
2023-02-26T19:25:24.565Z,7.82
2023-02-26T19:27:54.539Z,6.78
2023-02-26T19:33:10.053Z,7.00
2023-02-26T19:35:38.760Z,8.38
2023-02-26T19:38:11.120Z,7.90
2023-02-26T19:40:39.727Z,9.35
2023-02-26T19:43:10.748Z,9.10
2023-02-26T19:45:39.827Z,7.40
2023-02-26T19:48:09.288Z,7.35
2023-02-26T19:50:40.142Z,6.60
2023-02-26T19:53:10.646Z,5.87
2023-02-26T19:55:42.601Z,7.27
2023-02-26T19:58:13.572Z,6.38
2023-02-26T20:00:42.960Z,7.85
2023-02-26T20:03:11.407Z,5.87
2023-02-26T20:05:48.010Z,5.60
2023-02-26T20:08:26.610Z,5.72
2023-02-26T20:10:57.009Z,5.47
2023-02-26T20:13:35.788Z,5.80
2023-02-26T20:16:08.925Z,6.53
2023-02-26T20:18:38.860Z,6.33
2023-02-26T20:21:18.615Z,6.17
2023-02-26T20:23:50.336Z,5.77
2023-02-26T20:26:20.377Z,5.95
2023-02-26T20:28:53.364Z,5.95
2023-02-26T20:31:25.887Z,6.10
2023-02-26T20:33:55.919Z,5.32
2023-02-26T20:36:24.144Z,5.80
2023-02-26T20:38:54.776Z,6.40
2023-02-26T20:41:27.964Z,5.73
2023-02-26T20:43:58.611Z,5.30
2023-02-26T20:46:27.459Z,5.60
2023-02-26T20:48:56.264Z,5.50
2023-02-26T20:51:25.052Z,4.80
2023-02-26T20:53:58.833Z,4.90
2023-02-26T20:56:27.448Z,5.60
2023-02-26T20:58:56.540Z,5.23
2023-02-26T21:01:25.108Z,5.13
2023-02-26T21:03:54.504Z,5.18
2023-02-26T21:06:24.237Z,5.78
2023-02-26T21:08:52.479Z,6.63
2023-02-26T21:11:22.128Z,4.80
2023-02-26T21:13:50.633Z,4.70
2023-02-26T21:16:19.646Z,5.97
2023-02-26T21:18:49.510Z,6.23
2023-02-26T21:21:21.142Z,5.28
2023-02-26T21:23:50.344Z,6.00
2023-02-26T21:26:18.673Z,7.03
2023-02-26T21:28:48.696Z,6.57
2023-02-26T21:31:17.475Z,7.60
2023-02-26T21:33:46.730Z,6.28
2023-02-26T21:36:15.922Z,5.90
2023-02-26T21:38:44.763Z,6.55
2023-02-26T21:41:13.184Z,6.30
2023-02-26T21:43:41.464Z,5.93
2023-02-26T21:46:11.460Z,7.53
2023-02-26T21:48:39.855Z,6.00
2023-02-26T21:51:08.406Z,7.13
2023-02-26T21:53:36.647Z,7.07
2023-02-26T21:56:04.913Z,6.28
2023-02-26T21:58:33.141Z,6.90
2023-02-26T22:01:01.426Z,7.33
2023-02-26T22:03:32.035Z,7.50
2023-02-26T22:06:00.533Z,6.97
2023-02-26T22:08:28.697Z,7.63
2023-02-26T22:10:56.907Z,7.45
2023-02-26T22:13:25.103Z,7.63
2023-02-26T22:15:53.502Z,7.77
2023-02-26T22:18:21.865Z,6.67
2023-02-26T22:20:51.792Z,7.70
2023-02-26T22:23:20.628Z,7.37
2023-02-26T22:26:07.552Z,6.40
2023-02-26T22:28:35.802Z,6.80
2023-02-26T22:31:06.519Z,6.73
2023-02-26T22:33:34.792Z,6.50
2023-02-26T22:36:04.614Z,6.37
2023-02-26T22:38:32.687Z,6.70
2023-02-26T22:41:00.693Z,6.47
2023-02-26T22:43:28.880Z,6.90
2023-02-26T22:45:57.156Z,6.13
2023-02-26T22:48:25.317Z,5.40
2023-02-26T22:50:54.055Z,5.73
2023-02-26T22:53:23.743Z,7.07
2023-02-26T22:55:54.733Z,6.27
2023-02-26T22:58:23.078Z,5.83
2023-02-26T23:00:52.847Z,6.47
2023-02-26T23:03:22.936Z,5.83
2023-02-26T23:05:51.032Z,6.63
2023-02-26T23:08:19.172Z,5.20
2023-02-26T23:10:48.850Z,5.73
2023-02-26T23:13:16.997Z,6.40
2023-02-26T23:15:46.644Z,5.83
2023-02-26T23:18:14.831Z,6.03
2023-02-26T23:20:43.015Z,5.37
2023-02-26T23:23:11.214Z,5.50
2023-02-26T23:25:39.325Z,5.17
2023-02-26T23:28:09.619Z,5.53
2023-02-26T23:30:38.069Z,5.30
2023-02-26T23:33:07.851Z,4.90
2023-02-26T23:35:36.795Z,5.07
2023-02-26T23:38:06.170Z,5.00
2023-02-26T23:40:34.926Z,5.73
2023-02-26T23:43:03.109Z,6.07
2023-02-26T23:45:32.690Z,6.30
2023-02-26T23:48:00.923Z,6.07
2023-02-26T23:50:29.176Z,6.43
2023-02-26T23:52:57.304Z,6.47
2023-02-26T23:55:26.344Z,5.60
2023-02-26T23:57:54.620Z,5.83
